x

West Santa Barbara 38 Nm West Of Santa Barbara, Ca (46054) Wave Buoy

9:50 - Sun 21st Dec 2014 All times are PST. -8 hours from GMT.

  • Sig Wave height 12.8ft
  • Swell Direction
  • Peak Period 15s
  • Average Period 9s
  • Wind
    25mph, 31mph gusts
  • Sea Temp 62°f
  • Luft Temp 62°f
  • Sea Pressure 1021.7mb
  • West Santa Barbara  38 Nm West Of Santa Barbara, Ca
  • West Santa Barbara  38 Nm West Of Santa Barbara, Ca

More Historic Weather Station data

Upgrade to MSW Pro to gain access to the past 30 days of data for over 8000 Wavebouys and Weather Stations around the globe.

Join Pro

Comparision Forecast

View Surf forecast
   
So 12/21 9:50 13ft 15s 9s 25 31 mph 1021.7mb 62f 62f
8:50 10.5ft 15s 8s 29 36 mph 1021.2mb 62f 62f
7:50 11ft 16s 8s 29 36 mph 1020.6mb 62f 62f
6:50 10ft 15s 8s 27 34 mph 1020.9mb 62f 62f
5:50 10.5ft 16s 9s 27 31 mph 1021.2mb 62f 62f
4:50 11ft 16s 9s 22 29 mph 1021.3mb 62f 62f
3:50 12.5ft 16s 9s 25 29 mph 1021.1mb 62f 62f
2:50 11.5ft 16s 9s 25 29 mph 1021.4mb 62f 62f
1:50 13ft 16s 9s 27 34 mph 1021.3mb 62f 62f
12:50 11ft 15s 8s 29 36 mph 1021mb 63f 62f
Sa 12/20 11:50 13ft 16s 9s 29 34 mph 1021.6mb 62f 62f
10:50 13ft 16s 10s 25 29 mph 1021.8mb 62f 62f
9:50 13ft 17s 10s 25 31 mph 1022.1mb 62f 62f
8:50 14.5ft 17s 11s 25 31 mph 1021.6mb 63f 62f
7:50 13.5ft 16s 11s 22 29 mph 1021.5mb 63f 62f
6:50 14ft 16s 11s 25 29 mph 1021.3mb 63f 62f
5:50 15ft 17s 12s 20 25 mph 1021.1mb 63f 61f
4:50 14ft 17s 12s 22 27 mph 1020.8mb 63f 62f
3:50 14ft 17s 13s 18 22 mph 1020.7mb 63f 62f
2:50 12ft 17s 13s 13 18 mph 1020.3mb 63f 62f
1:50 15.5ft 17s 14s 13 16 mph 1020.2mb 63f 62f
12:50 14ft 17s 13s 11 16 mph 1021mb 63f 62f
11:50 13ft 17s 13s 11 13 mph 1021.7mb 63f 62f
10:50 13ft 17s 13s 11 16 mph 1022.2mb 63f 62f
9:50 11.5ft 17s 13s 11 13 mph 1021.9mb 63f 62f
8:50 13.5ft 19s 14s 9 11 mph 1021.4mb 63f 61f
7:50 12ft 19s 13s 11 16 mph 1021.1mb 63f 61f
6:50 14ft 19s 14s 11 13 mph 1020.6mb 63f 61f
5:50 10.5ft 19s 12s 7 9 mph 1020.2mb 63f 60f
4:50 10ft 19s 13s 4 9 mph 1020.1mb 63f 60f
3:50 8ft 19s 12s 2 4 mph 1020.4mb 63f 60f
2:50 8.5ft 19s 12s 4 7 mph 1021.1mb 63f 60f
1:50 9ft 19s 13s 2
mph
1020.8mb 63f 60f
12:50 7ft 21s 11s 2 7 mph 1021.2mb 63f 60f
Fr 12/19 11:50 7ft 21s 11s 2 4 mph 1021.9mb 63f 60f
10:50 7ft 21s 11s 7
mph
1021.2mb 63f 60f
9:50 6ft 21s 11s 4
mph
1021.2mb 63f 60f
8:50 6.5ft 21s 10s 4 7 mph 1021.4mb 63f 60f
7:50 6ft 12s 10s 7 9 mph 1021.6mb 62f 60f
6:50 6ft 13s 10s 4 7 mph 1021.5mb 62f 60f
5:50 5ft 13s 10s 7 9 mph 1021.5mb 62f 60f
4:50 6ft 13s 10s 7 9 mph 1021.6mb 62f 60f
3:50 5ft 12s 9s 7
mph
1021.6mb 63f 60f
2:50 5ft 12s 8s 2
mph
1021mb 64f 61f
1:50 5.5ft 13s 8s 2 4 mph 1021mb 64f 61f
12:50 5ft 13s 8s 2
mph
1021.9mb 64f 60f
11:50 5ft 13s 8s  -  2 mph 1023.1mb 63f 60f
10:50 6ft 13s 8s 4
mph
1024.1mb 63f 60f
9:50 6ft 12s 9s 2 4 mph 1023.4mb 61f 60f
8:50 6ft 12s 9s 4
mph
1022.8mb 61f 60f
7:50 6ft 13s 9s 2 4 mph 1022.2mb 61f 60f
6:50 6.5ft 11s 9s  -  2 mph 1022.4mb 61f 59f
5:50 7ft 11s 9s  -  2 mph 1021.8mb 61f 59f
4:50 8ft 14s 9s 4 7 mph 1021.5mb 61f 59f
3:50 7ft 12s 9s 4
mph
1022.7mb 61f 59f
2:50 8ft 12s 10s 4 7 mph 1022.9mb 61f 59f
1:50 9ft 14s 10s 4 9 mph 1021.5mb 61f 59f
12:50 8ft 13s 10s 4 7 mph 1022.2mb 61f 59f
Do 12/18 11:50 9ft 14s 10s 2 4 mph 1023mb 61f 59f
10:50 8ft 14s 10s 2 4 mph 1022.7mb 61f 59f
9:50 8.5ft 14s 10s 2 4 mph 1022.5mb 61f 59f
8:50 7ft 15s 9s 2 4 mph 1022.3mb 61f 59f
7:50 8ft 14s 10s 2 4 mph 1022.3mb 61f 59f
6:50 8ft 14s 9s 2 4 mph 1021.8mb 61f 58f
5:50 7ft 14s 9s 2 4 mph 1021.1mb 61f 58f
4:50 8ft 14s 9s 2 4 mph 1020.7mb 61f 58f
3:50 8.5ft 14s 9s 2 4 mph 1020.8mb 61f 60f
2:50 7ft 11s 8s 4 9 mph 1020.6mb 61f 59f
1:50 7.5ft 14s 8s 9 11 mph 1020.3mb 61f 59f
12:50 8ft 12s 8s 11 13 mph 1020.4mb 61f 58f
11:50 8ft 14s 9s 16 18 mph 1021mb 61f 57f
10:50 7ft 14s 8s 16 18 mph 1021.5mb 61f 57f
9:50 7ft 14s 9s 16 20 mph 1021.5mb 61f 57f
8:50 7ft 15s 8s 16 20 mph 1020.5mb 61f 57f
7:50 7ft 15s 8s 16 20 mph 1019.7mb 61f 56f
6:50 7ft 15s 9s 13 16 mph 1019.3mb 61f 56f
5:50 7ft 11s 9s 13 18 mph 1018.3mb 61f 56f
4:50 8.5ft 12s 9s 9 11 mph 1018.3mb 61f 56f
3:50 8ft 11s 9s 9 13 mph 1018.6mb 61f 58f
2:50 8ft 11s 8s 2 4 mph 1019.1mb 61f 59f
1:50 9ft 11s 9s 2 4 mph 1019.1mb 61f 59f
12:50 9.5ft 12s 9s 7 9 mph 1019.4mb 61f 59f
Mi 12/17 11:50 10ft 12s 9s 7 9 mph 1019.7mb 61f 59f
10:50 9.5ft 12s 9s 4 7 mph 1019.8mb 61f 59f
9:50 10ft 12s 9s 4 9 mph 1019.9mb 61f 59f
8:50 11.5ft 12s 10s 7 9 mph 1019.8mb 61f 59f
7:50 10.5ft 12s 10s 7 9 mph 1019.4mb 61f 59f